Time;durP1;ratioP1;P1;durP2;ratioP2;P2;SDS_P1;SDS_P2;PMS_P1;PMS_P2;Temp;Humidity;BMP_temperature;BMP_pressure;BME280_temperature;BME280_humidity;BME280_pressure;Samples;Min_cycle;Max_cycle;Signal;HPM_P1;HPM_P2
2021/03/11 00:00:35;;;;;;;30.97;21.27;;;8.50;52.00;;;;;;5032967;28;20428;-75
2021/03/11 00:03:01;;;;;;;33.43;23.20;;;8.50;52.10;;;;;;5031998;28;20022;-76
2021/03/11 00:05:26;;;;;;;31.47;21.60;;;8.50;52.40;;;;;;5033572;28;20041;-77
2021/03/11 00:07:52;;;;;;;29.33;21.37;;;8.50;53.10;;;;;;5032207;28;20105;-76
2021/03/11 00:10:18;;;;;;;32.67;21.90;;;8.50;52.70;;;;;;5032897;28;20470;-75
2021/03/11 00:12:44;;;;;;;29.73;21.60;;;8.50;52.50;;;;;;5033264;28;20562;-76
2021/03/11 00:15:14;;;;;;;27.80;20.30;;;8.50;52.40;;;;;;5031730;28;20486;-76
2021/03/11 00:17:41;;;;;;;27.93;20.37;;;8.50;52.40;;;;;;5031665;28;20034;-76
2021/03/11 00:20:08;;;;;;;24.80;18.50;;;8.50;52.80;;;;;;5032154;28;20022;-75
2021/03/11 00:22:34;;;;;;;28.70;17.80;;;8.50;52.70;;;;;;5032990;28;20022;-77
2021/03/11 00:25:00;;;;;;;23.17;16.57;;;8.60;53.10;;;;;;5031667;28;20488;-76
2021/03/11 00:27:25;;;;;;;22.23;15.90;;;8.50;52.50;;;;;;5031837;28;20030;-75
2021/03/11 00:29:51;;;;;;;21.73;16.17;;;8.60;52.40;;;;;;5032009;28;20060;-75
2021/03/11 00:32:17;;;;;;;23.17;16.53;;;8.60;52.50;;;;;;5032610;28;20030;-77
2021/03/11 00:34:42;;;;;;;25.63;16.37;;;8.60;52.80;;;;;;5032962;28;20033;-75
2021/03/11 00:37:08;;;;;;;22.63;16.37;;;8.60;52.80;;;;;;5032299;28;21203;-76
2021/03/11 00:39:34;;;;;;;25.03;16.70;;;8.60;53.10;;;;;;5032248;28;20429;-76
2021/03/11 00:41:59;;;;;;;28.80;16.00;;;8.70;53.20;;;;;;5033012;28;20036;-76
2021/03/11 00:44:25;;;;;;;22.77;16.80;;;8.70;53.60;;;;;;5031618;28;20478;-75
2021/03/11 00:46:51;;;;;;;22.50;16.27;;;8.70;54.00;;;;;;5031173;28;20769;-76
2021/03/11 00:49:16;;;;;;;21.23;15.33;;;8.70;54.40;;;;;;5032161;28;20032;-76
2021/03/11 00:51:42;;;;;;;21.43;14.93;;;8.80;53.90;;;;;;5031693;28;20116;-76
2021/03/11 00:54:08;;;;;;;19.27;14.93;;;8.70;53.30;;;;;;5032482;28;20105;-76
2021/03/11 00:56:33;;;;;;;26.87;19.13;;;8.80;52.80;;;;;;5031705;28;20041;-75
2021/03/11 00:58:59;;;;;;;28.27;20.50;;;8.80;52.20;;;;;;5031102;28;20033;-75
2021/03/11 01:01:25;;;;;;;28.53;20.83;;;8.80;52.40;;;;;;5032525;28;20030;-77
2021/03/11 01:03:50;;;;;;;30.17;21.43;;;8.80;52.70;;;;;;5031319;28;20037;-77
2021/03/11 01:06:16;;;;;;;33.57;22.30;;;8.70;52.80;;;;;;5031493;28;20013;-77
2021/03/11 01:08:42;;;;;;;34.07;21.80;;;8.70;54.20;;;;;;5031251;28;20033;-76
2021/03/11 01:11:08;;;;;;;28.77;21.67;;;8.60;53.60;;;;;;5031776;28;20466;-76
2021/03/11 01:13:33;;;;;;;31.80;21.47;;;8.60;53.60;;;;;;5032143;28;20168;-75
2021/03/11 01:16:00;;;;;;;32.13;23.40;;;8.60;52.70;;;;;;5032125;28;20041;-75
2021/03/11 01:18:26;;;;;;;30.87;21.47;;;8.60;53.90;;;;;;5031257;28;20120;-76
2021/03/11 01:20:52;;;;;;;29.90;20.97;;;8.50;54.10;;;;;;5032623;28;20559;-76
2021/03/11 01:23:17;;;;;;;29.93;20.90;;;8.50;53.70;;;;;;5031246;28;20064;-77
2021/03/11 01:25:43;;;;;;;34.23;21.37;;;8.50;53.20;;;;;;5031020;28;20074;-77
2021/03/11 01:28:09;;;;;;;29.43;21.47;;;8.40;53.10;;;;;;5029873;28;20423;-76
2021/03/11 01:30:34;;;;;;;27.60;21.30;;;8.40;53.90;;;;;;5029662;28;20033;-76
2021/03/11 01:33:00;;;;;;;31.70;21.13;;;8.40;53.60;;;;;;5031320;28;20033;-76
2021/03/11 01:35:27;;;;;;;31.07;21.37;;;8.40;53.50;;;;;;5030610;28;20104;-76
2021/03/11 01:37:53;;;;;;;32.23;22.47;;;8.40;53.70;;;;;;5031610;28;20385;-75
2021/03/11 01:40:19;;;;;;;31.60;21.40;;;8.30;54.10;;;;;;5031911;28;20095;-76
2021/03/11 01:42:44;;;;;;;30.03;21.07;;;8.30;55.90;;;;;;5030581;28;20056;-78
2021/03/11 01:45:11;;;;;;;31.87;20.97;;;8.20;55.30;;;;;;5032121;28;20128;-76
2021/03/11 01:47:37;;;;;;;34.33;21.03;;;8.20;54.70;;;;;;5035496;28;20029;-76
2021/03/11 01:50:05;;;;;;;27.20;20.37;;;8.20;54.60;;;;;;5034812;28;20021;-77
2021/03/11 01:52:33;;;;;;;28.13;20.00;;;8.20;54.60;;;;;;5034873;28;20049;-76
2021/03/11 01:54:58;;;;;;;29.07;19.10;;;8.30;54.10;;;;;;5035313;28;20025;-77
2021/03/11 01:57:25;;;;;;;27.27;20.10;;;8.30;54.20;;;;;;5035321;28;20068;-76
2021/03/11 01:59:51;;;;;;;29.40;19.43;;;8.30;54.40;;;;;;5032681;28;20442;-77
2021/03/11 02:02:17;;;;;;;25.40;19.63;;;8.20;54.40;;;;;;5031524;28;20021;-76
2021/03/11 02:04:43;;;;;;;29.13;19.43;;;8.30;55.00;;;;;;5032811;28;20448;-75
2021/03/11 02:07:09;;;;;;;30.73;19.87;;;8.20;54.30;;;;;;5034244;28;20026;-76
2021/03/11 02:09:35;;;;;;;26.00;19.60;;;8.30;54.10;;;;;;5035003;28;20355;-76
2021/03/11 02:12:00;;;;;;;27.37;19.57;;;8.30;53.60;;;;;;5035410;28;20033;-77
2021/03/11 02:14:40;;;;;;;30.47;19.67;;;8.30;53.70;;;;;;5033844;28;20056;-75
2021/03/11 02:17:07;;;;;;;26.20;19.53;;;8.30;53.70;;;;;;5034330;28;20092;-77
2021/03/11 02:20:09;;;;;;;24.07;18.53;;;8.30;53.70;;;;;;5016736;28;20416;-76
2021/03/11 02:23:11;;;;;;;24.33;18.80;;;8.20;54.30;;;;;;5033687;28;20026;-76
2021/03/11 02:26:09;;;;;;;28.47;19.00;;;8.20;54.60;;;;;;5033720;28;20097;-75
2021/03/11 02:29:03;;;;;;;25.13;18.20;;;8.10;55.50;;;;;;5033509;28;20353;-76
2021/03/11 02:31:31;;;;;;;28.80;18.67;;;8.10;55.80;;;;;;5034156;28;20027;-76
2021/03/11 02:34:00;;;;;;;28.90;19.43;;;8.10;54.80;;;;;;5034304;28;20045;-75
2021/03/11 02:36:27;;;;;;;29.10;19.33;;;8.10;54.50;;;;;;5034763;28;20030;-76
2021/03/11 02:38:58;;;;;;;29.33;19.47;;;8.10;54.90;;;;;;5033723;28;20040;-76
2021/03/11 02:41:25;;;;;;;28.27;19.67;;;8.10;55.90;;;;;;5033508;28;20111;-77
2021/03/11 02:43:51;;;;;;;26.77;20.20;;;8.10;55.30;;;;;;5034622;28;20037;-76
2021/03/11 02:46:19;;;;;;;26.63;18.63;;;8.10;54.40;;;;;;5034382;28;20077;-76
2021/03/11 02:48:48;;;;;;;29.67;19.30;;;8.10;54.10;;;;;;5034661;28;20474;-77
2021/03/11 02:51:14;;;;;;;25.03;18.10;;;8.10;54.20;;;;;;5034307;28;20536;-76
2021/03/11 02:53:41;;;;;;;23.47;17.53;;;8.10;55.20;;;;;;5033464;28;20466;-77
2021/03/11 02:56:08;;;;;;;23.87;17.70;;;8.10;54.90;;;;;;5033241;28;20025;-77
2021/03/11 02:58:34;;;;;;;25.27;17.03;;;8.10;54.20;;;;;;5032925;28;20029;-76
2021/03/11 03:01:00;;;;;;;23.10;16.67;;;8.10;53.80;;;;;;5034454;28;20450;-75
2021/03/11 03:03:28;;;;;;;23.97;16.80;;;8.10;53.80;;;;;;5032967;28;20474;-77
2021/03/11 03:05:56;;;;;;;26.53;16.50;;;8.00;53.40;;;;;;5034020;28;20025;-76
2021/03/11 03:08:23;;;;;;;25.10;17.17;;;8.00;53.70;;;;;;5033437;28;20359;-76
2021/03/11 03:10:51;;;;;;;24.97;17.07;;;8.00;54.30;;;;;;5033158;28;20033;-76
2021/03/11 03:13:17;;;;;;;25.13;17.27;;;7.90;55.70;;;;;;5033213;28;20040;-76
2021/03/11 03:15:44;;;;;;;23.33;16.83;;;7.90;54.80;;;;;;5033293;28;20087;-75
2021/03/11 03:18:12;;;;;;;26.77;16.50;;;7.90;54.50;;;;;;5032825;28;20033;-77
2021/03/11 03:20:38;;;;;;;24.03;17.97;;;8.00;54.50;;;;;;5033084;28;20041;-75
2021/03/11 03:23:06;;;;;;;29.63;17.93;;;8.00;55.20;;;;;;5034325;28;20029;-75
2021/03/11 03:25:32;;;;;;;27.70;17.50;;;7.90;55.30;;;;;;5033890;28;20470;-75
2021/03/11 03:27:58;;;;;;;23.20;16.67;;;7.90;55.30;;;;;;5033768;28;20033;-75
2021/03/11 03:30:24;;;;;;;25.20;18.37;;;7.90;55.40;;;;;;5032463;28;20417;-77
2021/03/11 03:32:52;;;;;;;24.17;17.37;;;7.90;55.40;;;;;;5033783;28;20489;-76
2021/03/11 03:35:18;;;;;;;21.47;16.17;;;8.00;55.60;;;;;;5032839;28;20056;-75
2021/03/11 03:37:44;;;;;;;24.70;17.13;;;7.90;55.60;;;;;;5033795;28;20048;-75
2021/03/11 03:40:13;;;;;;;24.03;16.47;;;7.90;55.50;;;;;;5033028;28;20026;-76
2021/03/11 03:42:45;;;;;;;24.13;16.70;;;7.90;55.60;;;;;;5032158;28;20033;-76
2021/03/11 03:45:16;;;;;;;22.98;17.58;;;7.90;55.70;;;;;;5032799;28;20060;-77
2021/03/11 03:47:43;;;;;;;26.80;17.00;;;7.90;56.00;;;;;;5031862;28;20029;-75
2021/03/11 03:50:11;;;;;;;29.43;17.90;;;7.90;55.80;;;;;;5032579;28;20035;-75
2021/03/11 03:52:40;;;;;;;26.87;16.53;;;7.90;55.60;;;;;;5032182;28;20021;-75
2021/03/11 03:55:10;;;;;;;35.90;16.90;;;7.90;55.70;;;;;;5032289;28;20112;-76
2021/03/11 03:57:38;;;;;;;33.90;17.13;;;7.90;56.30;;;;;;5032275;28;20037;-76
2021/03/11 04:00:06;;;;;;;29.93;16.60;;;7.80;56.10;;;;;;5032057;28;20474;-76
2021/03/11 04:02:33;;;;;;;27.83;17.57;;;7.80;57.00;;;;;;5032891;28;20486;-75
2021/03/11 04:05:02;;;;;;;26.97;17.30;;;7.80;57.00;;;;;;5032766;28;20029;-75
2021/03/11 04:07:29;;;;;;;32.00;17.17;;;7.70;56.60;;;;;;5031202;28;20099;-76
2021/03/11 04:09:55;;;;;;;25.37;16.90;;;7.70;57.10;;;;;;5031904;28;20028;-76
2021/03/11 04:12:22;;;;;;;26.17;15.93;;;7.70;57.20;;;;;;5031743;28;20104;-75
2021/03/11 04:14:49;;;;;;;23.90;16.50;;;7.70;56.20;;;;;;5032118;28;20108;-76
2021/03/11 04:17:15;;;;;;;23.80;16.30;;;7.70;57.10;;;;;;5031236;28;20473;-76
2021/03/11 04:19:43;;;;;;;22.47;16.27;;;7.70;56.20;;;;;;5031534;28;20101;-76
2021/03/11 04:22:09;;;;;;;27.30;16.60;;;7.80;55.90;;;;;;5031673;28;20060;-75
2021/03/11 04:24:36;;;;;;;24.40;15.73;;;7.80;55.50;;;;;;5031842;28;20492;-76
2021/03/11 04:27:05;;;;;;;23.90;15.43;;;7.80;55.30;;;;;;5031534;28;20033;-76
2021/03/11 04:29:31;;;;;;;22.50;15.43;;;7.80;55.30;;;;;;5032115;28;20045;-75
2021/03/11 04:31:59;;;;;;;26.67;16.63;;;7.80;56.90;;;;;;5032203;28;20021;-75
2021/03/11 04:34:26;;;;;;;27.20;16.13;;;7.80;56.80;;;;;;5032032;28;20476;-75
2021/03/11 04:36:52;;;;;;;23.77;15.57;;;7.80;57.10;;;;;;5032649;28;20037;-75
2021/03/11 04:39:19;;;;;;;22.73;16.37;;;7.70;57.80;;;;;;5032593;28;20045;-77
2021/03/11 04:41:50;;;;;;;25.00;15.77;;;7.70;58.20;;;;;;5031809;28;20022;-76
2021/03/11 04:44:16;;;;;;;29.67;16.70;;;7.80;57.90;;;;;;5031611;28;20029;-76
2021/03/11 04:46:43;;;;;;;25.40;15.93;;;7.80;57.70;;;;;;5031550;28;20056;-76
2021/03/11 04:49:10;;;;;;;24.73;17.23;;;7.80;57.40;;;;;;5031247;28;20021;-76
2021/03/11 04:51:37;;;;;;;28.50;15.57;;;7.80;58.00;;;;;;5032113;28;20589;-75
2021/03/11 04:54:03;;;;;;;21.00;15.90;;;7.80;58.00;;;;;;5031571;28;20104;-75
2021/03/11 04:56:29;;;;;;;26.07;15.90;;;7.80;57.70;;;;;;5032025;28;20109;-75
2021/03/11 04:58:55;;;;;;;23.70;15.60;;;7.80;57.20;;;;;;5030484;28;20033;-75
2021/03/11 05:01:24;;;;;;;19.10;14.97;;;7.80;58.40;;;;;;5031565;28;20152;-75
2021/03/11 05:03:51;;;;;;;19.40;13.80;;;7.80;57.80;;;;;;5031761;28;20382;-76
2021/03/11 05:06:17;;;;;;;21.33;14.67;;;7.80;57.70;;;;;;5031059;28;20656;-75
2021/03/11 05:08:43;;;;;;;22.67;14.03;;;7.80;56.80;;;;;;5032763;28;20106;-76
2021/03/11 05:11:14;;;;;;;18.77;13.67;;;7.80;56.60;;;;;;5031532;28;20037;-76
2021/03/11 05:13:41;;;;;;;18.23;13.90;;;7.90;56.30;;;;;;5031063;28;20110;-77
2021/03/11 05:16:06;;;;;;;18.83;13.47;;;7.90;56.10;;;;;;5030708;28;20030;-75
2021/03/11 05:18:32;;;;;;;22.37;13.80;;;7.90;55.80;;;;;;5032643;28;20052;-77
2021/03/11 05:20:58;;;;;;;17.97;13.47;;;7.90;55.30;;;;;;5035531;28;20048;-76
2021/03/11 05:23:24;;;;;;;16.97;13.43;;;7.90;56.00;;;;;;5036276;28;20033;-76
2021/03/11 05:25:52;;;;;;;18.33;12.80;;;7.90;56.20;;;;;;5036542;28;20049;-77
2021/03/11 05:28:19;;;;;;;20.87;12.60;;;7.90;56.50;;;;;;5035424;28;20105;-77
2021/03/11 05:30:45;;;;;;;20.03;13.00;;;7.90;56.30;;;;;;5035904;28;20038;-76
2021/03/11 05:33:11;;;;;;;18.63;13.50;;;7.90;56.20;;;;;;5034921;28;20061;-76
2021/03/11 05:35:36;;;;;;;18.57;13.20;;;7.90;55.90;;;;;;5035242;28;20481;-76
2021/03/11 05:38:03;;;;;;;19.73;14.27;;;7.90;56.20;;;;;;5034659;28;20466;-77
2021/03/11 05:40:29;;;;;;;19.77;11.83;;;7.90;56.00;;;;;;5035222;28;20018;-76
2021/03/11 05:42:58;;;;;;;20.93;14.57;;;7.90;55.70;;;;;;5034733;28;20021;-76
2021/03/11 05:45:27;;;;;;;18.90;13.53;;;7.90;55.20;;;;;;5034481;28;20038;-77
2021/03/11 05:47:53;;;;;;;18.13;13.67;;;7.90;55.70;;;;;;5034101;28;20034;-76
2021/03/11 05:50:20;;;;;;;23.00;13.97;;;7.90;56.20;;;;;;5034497;28;20105;-76
2021/03/11 05:52:46;;;;;;;24.73;12.93;;;7.90;57.30;;;;;;5035382;28;20036;-77
2021/03/11 05:55:12;;;;;;;22.17;13.27;;;7.90;57.50;;;;;;5035122;28;20029;-77
2021/03/11 05:57:43;;;;;;;34.63;14.90;;;7.90;57.50;;;;;;5034416;28;20589;-76
2021/03/11 06:00:13;;;;;;;19.97;13.33;;;7.90;56.70;;;;;;5034648;28;20105;-76
2021/03/11 06:02:40;;;;;;;18.97;13.27;;;7.90;57.10;;;;;;5035690;28;20040;-76
2021/03/11 06:05:08;;;;;;;18.40;12.50;;;8.00;57.50;;;;;;5034840;28;20037;-77
2021/03/11 06:07:34;;;;;;;23.40;13.57;;;8.00;57.70;;;;;;5035654;28;20417;-76
2021/03/11 06:10:05;;;;;;;18.23;13.03;;;8.00;57.80;;;;;;5034673;28;20104;-76
2021/03/11 06:12:31;;;;;;;16.90;12.73;;;8.00;57.20;;;;;;5034997;28;20085;-76
2021/03/11 06:15:12;;;;;;;23.03;14.37;;;8.00;57.90;;;;;;5034912;28;20053;-76
2021/03/11 06:17:40;;;;;;;20.33;13.40;;;8.00;57.00;;;;;;5034117;28;20494;-76
2021/03/11 06:20:08;;;;;;;29.97;13.77;;;8.00;56.40;;;;;;5034994;28;20021;-75
2021/03/11 06:22:34;;;;;;;30.13;15.00;;;8.00;55.90;;;;;;5033823;28;20026;-76
2021/03/11 06:25:00;;;;;;;26.03;15.47;;;8.10;55.80;;;;;;5034075;28;20107;-77
2021/03/11 06:27:25;;;;;;;28.30;15.00;;;8.10;55.70;;;;;;5034773;28;20045;-77
2021/03/11 06:29:51;;;;;;;40.10;15.30;;;8.10;55.60;;;;;;5035874;28;20421;-76
2021/03/11 06:32:17;;;;;;;27.53;16.27;;;8.10;55.80;;;;;;5033799;28;20022;-76
2021/03/11 06:34:43;;;;;;;33.90;15.93;;;8.10;56.00;;;;;;5033896;28;20092;-76
2021/03/11 06:37:14;;;;;;;33.10;15.90;;;8.10;56.50;;;;;;5034309;28;20065;-76
2021/03/11 06:39:44;;;;;;;26.53;15.57;;;8.00;56.50;;;;;;5034601;28;20032;-76
2021/03/11 06:42:10;;;;;;;24.70;15.53;;;8.10;56.50;;;;;;5034134;28;20029;-75
2021/03/11 06:44:42;;;;;;;28.43;16.07;;;8.10;56.60;;;;;;5034501;28;20494;-76
2021/03/11 06:47:13;;;;;;;28.47;15.90;;;8.10;56.60;;;;;;5033338;28;20056;-76
2021/03/11 06:49:59;;;;;;;31.43;16.70;;;8.10;57.20;;;;;;5034841;28;20401;-76
2021/03/11 06:52:26;;;;;;;31.40;16.20;;;8.10;57.40;;;;;;5033933;28;20474;-76
2021/03/11 06:54:52;;;;;;;27.43;15.67;;;8.10;57.40;;;;;;5033757;28;20032;-76
2021/03/11 06:57:27;;;;;;;26.20;15.03;;;8.10;57.20;;;;;;5034728;28;20029;-76
2021/03/11 06:59:53;;;;;;;32.10;15.03;;;8.10;57.30;;;;;;5033237;28;20044;-76
2021/03/11 07:02:21;;;;;;;29.27;14.27;;;8.10;57.00;;;;;;5034883;28;20026;-76
2021/03/11 07:04:46;;;;;;;43.33;14.53;;;8.20;57.00;;;;;;5034916;28;20037;-76
2021/03/11 07:07:23;;;;;;;36.53;16.27;;;8.20;56.70;;;;;;5033027;28;20370;-76
2021/03/11 07:09:50;;;;;;;20.93;14.20;;;8.30;56.20;;;;;;5033701;28;20490;-76
2021/03/11 07:12:16;;;;;;;26.33;15.10;;;8.30;56.00;;;;;;5033682;28;20024;-76
2021/03/11 07:14:42;;;;;;;25.47;14.70;;;8.40;55.80;;;;;;5033594;28;20025;-76
2021/03/11 07:17:20;;;;;;;24.10;14.47;;;8.40;55.80;;;;;;5034635;28;20095;-76
2021/03/11 07:20:16;;;;;;;60.40;16.27;;;8.40;55.70;;;;;;5034344;28;20022;-79
2021/03/11 07:22:57;;;;;;;41.97;15.17;;;8.40;55.50;;;;;;5030962;28;20052;-78
2021/03/11 07:25:33;;;;;;;25.30;13.57;;;8.50;55.50;;;;;;5030517;28;20025;-78
2021/03/11 07:28:02;;;;;;;35.87;13.43;;;8.60;55.10;;;;;;5032551;28;20022;-76
2021/03/11 07:30:30;;;;;;;28.33;13.70;;;8.60;54.70;;;;;;5031816;28;20751;-82
2021/03/11 07:33:01;;;;;;;22.37;13.83;;;8.60;54.50;;;;;;5032238;28;20025;-78
2021/03/11 07:35:29;;;;;;;21.27;13.60;;;8.70;54.40;;;;;;5034010;28;20045;-76
2021/03/11 07:37:59;;;;;;;25.40;13.50;;;8.80;54.40;;;;;;5032699;28;20035;-77
2021/03/11 07:40:25;;;;;;;19.90;13.03;;;8.80;54.40;;;;;;5032408;28;20025;-77
2021/03/11 07:42:51;;;;;;;18.87;13.40;;;8.90;54.10;;;;;;5033893;28;20086;-77
2021/03/11 07:45:17;;;;;;;19.43;13.50;;;8.90;53.80;;;;;;5033911;28;20045;-78
2021/03/11 07:47:43;;;;;;;24.23;14.73;;;9.00;53.70;;;;;;5034073;28;20108;-77
2021/03/11 07:50:11;;;;;;;21.97;13.97;;;9.00;53.70;;;;;;5032493;28;20432;-77
2021/03/11 07:52:38;;;;;;;18.33;13.27;;;9.00;53.30;;;;;;5032554;28;20113;-78
2021/03/11 07:55:06;;;;;;;20.00;13.63;;;9.10;53.10;;;;;;5033953;28;20037;-75
2021/03/11 07:57:41;;;;;;;19.60;13.83;;;9.10;53.00;;;;;;5032904;28;20030;-75
2021/03/11 08:00:08;;;;;;;21.07;14.50;;;9.10;53.10;;;;;;5031400;28;20033;-77
2021/03/11 08:02:37;;;;;;;19.10;13.33;;;9.10;53.00;;;;;;5031279;28;20068;-76
2021/03/11 08:05:03;;;;;;;19.83;13.60;;;9.20;53.00;;;;;;5033754;28;20112;-76
2021/03/11 08:07:29;;;;;;;21.40;13.67;;;9.20;52.90;;;;;;5033501;28;20669;-75
2021/03/11 08:09:57;;;;;;;23.80;15.23;;;9.20;53.10;;;;;;5033018;28;20029;-74
2021/03/11 08:12:30;;;;;;;20.30;14.50;;;9.30;53.40;;;;;;5032815;28;20040;-73
2021/03/11 08:14:57;;;;;;;21.00;14.70;;;9.30;53.30;;;;;;5032604;28;20103;-77
2021/03/11 08:17:46;;;;;;;20.67;14.17;;;9.30;53.40;;;;;;5032126;28;20029;-77
2021/03/11 08:20:24;;;;;;;26.27;15.23;;;9.40;53.50;;;;;;5033604;28;20014;-77
2021/03/11 08:22:55;;;;;;;21.23;13.90;;;9.40;52.90;;;;;;5033243;28;20098;-76
2021/03/11 08:25:34;;;;;;;21.47;13.63;;;9.50;52.70;;;;;;5030489;28;20068;-73
2021/03/11 08:28:23;;;;;;;20.53;13.17;;;9.50;52.60;;;;;;5031972;28;20038;-76
2021/03/11 08:30:52;;;;;;;20.50;13.60;;;9.60;52.50;;;;;;5031685;28;20104;-75
2021/03/11 08:33:20;;;;;;;20.40;13.07;;;9.60;52.60;;;;;;5032951;28;20044;-74
2021/03/11 08:35:50;;;;;;;22.97;14.93;;;9.70;52.70;;;;;;5033428;28;20080;-75
2021/03/11 08:38:19;;;;;;;24.20;13.63;;;9.70;52.60;;;;;;5033199;28;20402;-76
2021/03/11 08:40:56;;;;;;;20.53;13.40;;;9.70;52.70;;;;;;5033131;28;20545;-76
2021/03/11 08:46:06;;;;;;;21.37;13.60;;;9.90;52.70;;;;;;5032673;28;20049;-76
2021/03/11 08:48:52;;;;;;;21.70;14.20;;;9.90;52.90;;;;;;5032602;28;20029;-76
2021/03/11 08:51:17;;;;;;;19.17;13.07;;;9.90;52.90;;;;;;5032654;28;20076;-76
2021/03/11 08:53:46;;;;;;;24.10;14.37;;;10.00;52.80;;;;;;5032204;28;20032;-76
2021/03/11 08:56:20;;;;;;;27.70;14.07;;;10.00;52.90;;;;;;5032897;28;20076;-76
2021/03/11 08:58:52;;;;;;;22.97;12.53;;;10.00;52.90;;;;;;5032981;28;20057;-76
2021/03/11 09:01:37;;;;;;;21.38;12.85;;;10.10;52.80;;;;;;5033349;28;20037;-76
2021/03/11 09:04:27;;;;;;;21.70;13.13;;;10.10;52.70;;;;;;5032935;28;20116;-78
2021/03/11 09:06:57;;;;;;;23.27;14.33;;;10.10;52.80;;;;;;5033053;28;20108;-77
2021/03/11 09:09:32;;;;;;;27.43;14.77;;;10.20;52.80;;;;;;5033115;28;20083;-76
2021/03/11 09:11:59;;;;;;;26.13;16.00;;;10.20;53.00;;;;;;5032416;28;20064;-77
2021/03/11 09:14:27;;;;;;;21.73;14.50;;;10.30;52.90;;;;;;5032778;28;20028;-77
2021/03/11 09:17:04;;;;;;;23.20;15.50;;;10.30;52.70;;;;;;5032971;28;20033;-77
2021/03/11 09:20:00;;;;;;;23.00;15.03;;;10.30;52.90;;;;;;5032864;28;20029;-78
2021/03/11 09:22:38;;;;;;;25.77;14.30;;;10.40;52.70;;;;;;5032479;28;20112;-78
2021/03/11 09:25:06;;;;;;;23.83;14.03;;;10.40;52.50;;;;;;5032915;28;20021;-77
2021/03/11 09:27:34;;;;;;;23.93;14.47;;;10.40;52.60;;;;;;5032844;28;20041;-77
2021/03/11 09:30:03;;;;;;;20.23;13.43;;;10.40;52.50;;;;;;5032642;28;20474;-76
2021/03/11 09:32:30;;;;;;;22.27;14.13;;;10.40;52.80;;;;;;5032954;28;20482;-77
2021/03/11 09:34:58;;;;;;;20.53;14.37;;;10.50;53.20;;;;;;5032868;28;20470;-77
2021/03/11 09:37:45;;;;;;;22.03;13.97;;;10.50;53.30;;;;;;5032990;28;20041;-78
2021/03/11 09:40:23;;;;;;;21.20;13.73;;;10.50;53.10;;;;;;5032956;28;20018;-77
2021/03/11 09:43:21;;;;;;;23.53;14.27;;;10.50;52.80;;;;;;5032864;28;20394;-77
2021/03/11 09:45:48;;;;;;;19.70;13.57;;;10.60;52.90;;;;;;5032439;28;20052;-77
2021/03/11 09:48:18;;;;;;;22.77;13.17;;;10.60;52.80;;;;;;5032697;28;20026;-77
2021/03/11 09:50:53;;;;;;;19.25;13.07;;;10.70;52.80;;;;;;5032369;28;20028;-76
2021/03/11 09:53:21;;;;;;;26.63;13.10;;;10.70;52.80;;;;;;5032602;28;20036;-76
2021/03/11 09:55:47;;;;;;;24.10;13.63;;;10.70;52.20;;;;;;5032812;28;20441;-77
2021/03/11 09:58:17;;;;;;;21.17;12.73;;;10.70;51.90;;;;;;5032433;28;20513;-76
2021/03/11 10:00:47;;;;;;;21.83;13.07;;;10.70;52.40;;;;;;5032590;28;20056;-77
2021/03/11 10:03:18;;;;;;;21.63;13.27;;;10.80;53.20;;;;;;5032393;28;20021;-78
2021/03/11 10:05:45;;;;;;;19.57;13.00;;;10.80;53.30;;;;;;5032536;28;20014;-76
2021/03/11 10:08:24;;;;;;;23.43;13.03;;;10.80;53.30;;;;;;5036001;28;20029;-76
2021/03/11 10:11:03;;;;;;;18.60;13.50;;;10.90;53.10;;;;;;5033914;28;20064;-76
2021/03/11 10:13:36;;;;;;;19.80;12.10;;;10.90;53.20;;;;;;5033952;28;20025;-77
2021/03/11 10:16:02;;;;;;;23.88;13.57;;;10.90;53.30;;;;;;5033888;28;20439;-77
2021/03/11 10:18:28;;;;;;;18.17;13.33;;;10.90;53.60;;;;;;5033479;28;20068;-77
2021/03/11 10:21:04;;;;;;;18.47;12.77;;;10.90;52.70;;;;;;5033677;28;20473;-77
2021/03/11 10:23:30;;;;;;;19.93;13.67;;;11.00;52.80;;;;;;5032599;28;20029;-77
2021/03/11 10:26:22;;;;;;;18.27;12.03;;;11.00;52.90;;;;;;5031112;28;20059;-77
2021/03/11 10:28:52;;;;;;;22.75;12.68;;;11.00;53.10;;;;;;5033130;28;20124;-77
2021/03/11 10:31:22;;;;;;;22.43;13.40;;;10.90;52.60;;;;;;5032995;28;20540;-77
2021/03/11 10:34:00;;;;;;;20.43;13.83;;;11.00;52.80;;;;;;5032441;28;20032;-77
2021/03/11 10:36:26;;;;;;;20.25;14.65;;;10.90;52.60;;;;;;5034453;28;20029;-76
2021/03/11 10:39:14;;;;;;;22.27;13.77;;;11.00;53.20;;;;;;5035521;28;20040;-76
2021/03/11 10:42:00;;;;;;;20.40;12.15;;;11.00;53.80;;;;;;5035584;28;20116;-77
2021/03/11 10:44:27;;;;;;;21.33;12.53;;;11.00;53.10;;;;;;5035471;28;20425;-76
2021/03/11 10:46:53;;;;;;;20.30;12.90;;;11.00;53.20;;;;;;5035251;28;20056;-76
2021/03/11 10:49:34;;;;;;;19.67;12.93;;;11.00;53.30;;;;;;5035198;28;20036;-76
2021/03/11 10:52:00;;;;;;;19.73;12.77;;;11.00;53.50;;;;;;5035393;28;20026;-75
2021/03/11 10:54:30;;;;;;;18.80;11.10;;;11.00;53.70;;;;;;5035182;28;20048;-76
2021/03/11 10:57:10;;;;;;;19.10;11.97;;;11.00;53.50;;;;;;5035180;28;20039;-76
2021/03/11 10:59:53;;;;;;;17.67;11.80;;;11.00;53.50;;;;;;5035344;28;20498;-76
2021/03/11 11:02:24;;;;;;;17.15;11.52;;;11.00;53.80;;;;;;5035077;28;20025;-75
2021/03/11 11:04:50;;;;;;;19.50;12.57;;;11.10;54.00;;;;;;5035251;28;20037;-76
2021/03/11 11:07:17;;;;;;;20.40;12.70;;;11.10;53.90;;;;;;5034720;28;20075;-75
2021/03/11 11:09:46;;;;;;;18.83;12.32;;;11.10;53.90;;;;;;5034657;28;20060;-76
2021/03/11 11:12:15;;;;;;;18.90;11.68;;;11.20;54.60;;;;;;5034829;28;20061;-76
2021/03/11 11:14:42;;;;;;;21.83;12.40;;;11.20;54.70;;;;;;5034968;28;20021;-76
2021/03/11 11:17:12;;;;;;;24.25;12.40;;;11.30;54.70;;;;;;5034421;28;20470;-76
2021/03/11 11:19:38;;;;;;;20.83;12.75;;;11.30;55.00;;;;;;5034662;28;20079;-76
2021/03/11 11:22:05;;;;;;;16.70;11.63;;;11.30;54.70;;;;;;5034595;28;20029;-76
2021/03/11 11:24:30;;;;;;;21.03;12.50;;;11.30;54.70;;;;;;5034828;28;20028;-76
2021/03/11 11:26:57;;;;;;;17.80;11.80;;;11.40;54.50;;;;;;5034561;28;20026;-76
2021/03/11 11:29:24;;;;;;;17.23;12.20;;;11.40;54.80;;;;;;5034378;28;20363;-76
2021/03/11 11:31:49;;;;;;;16.63;13.00;;;11.40;54.60;;;;;;5034643;28;20020;-76
2021/03/11 11:34:15;;;;;;;18.85;13.05;;;11.50;54.60;;;;;;5034079;28;20382;-76
2021/03/11 11:36:44;;;;;;;17.92;12.90;;;11.50;54.70;;;;;;5033110;28;20398;-76
2021/03/11 11:39:10;;;;;;;24.00;12.25;;;11.50;54.10;;;;;;5032226;28;20390;-76
2021/03/11 11:41:40;;;;;;;18.10;12.40;;;11.60;54.10;;;;;;5034022;28;20034;-76
2021/03/11 11:44:07;;;;;;;20.38;12.27;;;11.60;53.50;;;;;;5033688;28;20033;-77
2021/03/11 11:46:32;;;;;;;17.92;12.27;;;11.70;53.70;;;;;;5033656;28;20383;-74
2021/03/11 11:48:58;;;;;;;16.50;12.65;;;11.70;53.60;;;;;;5033907;28;20040;-76
2021/03/11 11:51:24;;;;;;;16.10;12.32;;;11.80;53.40;;;;;;5034150;28;20052;-76
2021/03/11 11:53:51;;;;;;;17.90;12.57;;;11.90;53.20;;;;;;5034398;28;20077;-76
2021/03/11 11:56:16;;;;;;;16.50;12.30;;;11.90;53.30;;;;;;5033860;28;20073;-77
2021/03/11 11:58:44;;;;;;;19.63;12.23;;;11.90;53.30;;;;;;5033494;28;20029;-76
2021/03/11 12:01:11;;;;;;;15.73;11.60;;;12.00;53.40;;;;;;5032462;28;20470;-76
2021/03/11 12:03:37;;;;;;;19.85;13.38;;;12.00;53.60;;;;;;5033775;28;20396;-76
2021/03/11 12:06:03;;;;;;;19.50;13.60;;;12.00;53.30;;;;;;5033691;28;20036;-76
2021/03/11 12:08:29;;;;;;;23.35;13.38;;;12.00;53.40;;;;;;5033758;28;20472;-75
2021/03/11 12:10:55;;;;;;;15.95;12.13;;;12.00;53.20;;;;;;5031835;28;20152;-75
2021/03/11 12:13:21;;;;;;;19.45;12.38;;;12.00;53.50;;;;;;5033183;28;20028;-75
2021/03/11 12:15:47;;;;;;;15.95;11.30;;;12.00;53.50;;;;;;5033267;28;20033;-76
2021/03/11 12:18:12;;;;;;;16.23;10.98;;;12.00;53.10;;;;;;5032324;28;20033;-75
2021/03/11 12:20:38;;;;;;;20.73;10.90;;;12.00;53.00;;;;;;5032836;28;20022;-76
2021/03/11 12:23:05;;;;;;;18.95;10.20;;;12.00;52.00;;;;;;5033156;28;20048;-75
2021/03/11 12:25:32;;;;;;;17.00;10.60;;;12.00;51.40;;;;;;5032580;28;20037;-76
2021/03/11 12:27:58;;;;;;;23.42;11.05;;;11.90;50.60;;;;;;5031784;28;20108;-76
2021/03/11 12:30:24;;;;;;;18.95;11.68;;;11.90;49.60;;;;;;5032505;28;20104;-74
2021/03/11 12:32:50;;;;;;;17.42;11.25;;;11.80;49.90;;;;;;5032997;28;20037;-75
2021/03/11 12:35:16;;;;;;;16.13;10.25;;;11.80;49.10;;;;;;5031403;28;20029;-76
2021/03/11 12:37:42;;;;;;;16.13;10.30;;;11.70;49.50;;;;;;5032819;28;20043;-75
2021/03/11 12:40:08;;;;;;;17.02;10.95;;;11.70;49.20;;;;;;5032838;28;20029;-75
2021/03/11 12:42:34;;;;;;;17.60;9.77;;;11.70;48.80;;;;;;5033164;28;20600;-75
2021/03/11 12:45:00;;;;;;;15.10;9.20;;;11.60;49.00;;;;;;5031596;28;20094;-74